sensor_id;sensor_type;location;lat;lon;timestamp;temperature;humidity
42187;DHT22;27858;51.414;0.018;2023-06-26T04:01:53;15.20;99.90
42187;DHT22;27858;51.414;0.018;2023-06-26T04:04:24;15.20;99.90
42187;DHT22;27858;51.414;0.018;2023-06-26T04:06:51;15.20;99.90
42187;DHT22;27858;51.414;0.018;2023-06-26T04:09:18;15.20;99.90
42187;DHT22;27858;51.414;0.018;2023-06-26T04:11:46;15.20;99.90
42187;DHT22;27858;51.414;0.018;2023-06-26T04:14:13;15.20;99.90
42187;DHT22;27858;51.414;0.018;2023-06-26T04:16:40;15.20;99.90
42187;DHT22;27858;51.414;0.018;2023-06-26T04:19:07;15.20;99.90
42187;DHT22;27858;51.414;0.018;2023-06-26T04:21:34;15.20;99.90
42187;DHT22;27858;51.414;0.018;2023-06-26T04:24:01;15.20;99.90
42187;DHT22;27858;51.414;0.018;2023-06-26T04:26:28;15.20;99.90
42187;DHT22;27858;51.414;0.018;2023-06-26T04:28:55;15.20;99.90
42187;DHT22;27858;51.414;0.018;2023-06-26T04:31:22;15.20;99.90
42187;DHT22;27858;51.414;0.018;2023-06-26T04:33:52;15.20;99.90
42187;DHT22;27858;51.414;0.018;2023-06-26T04:36:21;15.20;99.90
42187;DHT22;27858;51.414;0.018;2023-06-26T04:38:59;15.20;99.90
42187;DHT22;27858;51.414;0.018;2023-06-26T04:41:32;15.30;99.90
42187;DHT22;27858;51.414;0.018;2023-06-26T04:43:59;15.20;99.90
42187;DHT22;27858;51.414;0.018;2023-06-26T04:46:26;15.20;99.90
42187;DHT22;27858;51.414;0.018;2023-06-26T04:48:56;15.30;99.90
42187;DHT22;27858;51.414;0.018;2023-06-26T04:51:25;15.30;99.90
42187;DHT22;27858;51.414;0.018;2023-06-26T04:53:54;15.30;99.90
42187;DHT22;27858;51.414;0.018;2023-06-26T04:56:21;15.30;99.90
42187;DHT22;27858;51.414;0.018;2023-06-26T04:58:50;15.30;99.90
42187;DHT22;27858;51.414;0.018;2023-06-26T05:01:22;15.30;99.90
42187;DHT22;27858;51.414;0.018;2023-06-26T05:04:05;15.40;99.90
42187;DHT22;27858;51.414;0.018;2023-06-26T05:06:33;15.40;99.90
42187;DHT22;27858;51.414;0.018;2023-06-26T05:09:08;15.30;99.90
42187;DHT22;27858;51.414;0.018;2023-06-26T05:11:36;15.40;99.90
42187;DHT22;27858;51.414;0.018;2023-06-26T05:14:06;15.40;99.90
42187;DHT22;27858;51.414;0.018;2023-06-26T05:16:50;15.40;99.90
42187;DHT22;27858;51.414;0.018;2023-06-26T05:19:17;15.40;99.90
42187;DHT22;27858;51.414;0.018;2023-06-26T05:21:45;15.40;99.90
42187;DHT22;27858;51.414;0.018;2023-06-26T05:24:13;15.40;99.90
42187;DHT22;27858;51.414;0.018;2023-06-26T05:26:42;15.40;99.90
42187;DHT22;27858;51.414;0.018;2023-06-26T05:29:10;15.50;99.90
42187;DHT22;27858;51.414;0.018;2023-06-26T05:31:40;15.50;99.90
42187;DHT22;27858;51.414;0.018;2023-06-26T05:34:10;15.60;99.90
42187;DHT22;27858;51.414;0.018;2023-06-26T05:36:38;15.70;99.90
42187;DHT22;27858;51.414;0.018;2023-06-26T05:39:07;15.70;99.90
42187;DHT22;27858;51.414;0.018;2023-06-26T05:41:35;15.70;99.90
42187;DHT22;27858;51.414;0.018;2023-06-26T05:44:02;15.70;99.90
42187;DHT22;27858;51.414;0.018;2023-06-26T05:46:29;15.70;99.90
42187;DHT22;27858;51.414;0.018;2023-06-26T05:48:56;15.80;99.90
42187;DHT22;27858;51.414;0.018;2023-06-26T05:51:23;15.80;99.90
42187;DHT22;27858;51.414;0.018;2023-06-26T05:53:50;15.90;99.90
42187;DHT22;27858;51.414;0.018;2023-06-26T05:56:18;15.90;99.90
42187;DHT22;27858;51.414;0.018;2023-06-26T05:58:45;16.00;99.90
42187;DHT22;27858;51.414;0.018;2023-06-26T06:01:12;16.00;99.90
42187;DHT22;27858;51.414;0.018;2023-06-26T06:03:39;16.00;99.90
42187;DHT22;27858;51.414;0.018;2023-06-26T06:06:06;16.10;99.90
42187;DHT22;27858;51.414;0.018;2023-06-26T06:08:33;16.10;99.90
42187;DHT22;27858;51.414;0.018;2023-06-26T06:11:00;16.10;99.90
42187;DHT22;27858;51.414;0.018;2023-06-26T06:13:28;16.10;99.90
42187;DHT22;27858;51.414;0.018;2023-06-26T06:15:55;16.10;99.90
42187;DHT22;27858;51.414;0.018;2023-06-26T06:18:23;16.20;99.90
42187;DHT22;27858;51.414;0.018;2023-06-26T06:20:49;16.30;99.90
42187;DHT22;27858;51.414;0.018;2023-06-26T06:23:16;16.40;99.90
42187;DHT22;27858;51.414;0.018;2023-06-26T06:25:43;16.50;99.90
42187;DHT22;27858;51.414;0.018;2023-06-26T06:28:10;16.60;99.90
42187;DHT22;27858;51.414;0.018;2023-06-26T06:30:37;16.70;99.90
42187;DHT22;27858;51.414;0.018;2023-06-26T06:33:06;16.80;99.90
42187;DHT22;27858;51.414;0.018;2023-06-26T06:35:33;16.90;99.90
42187;DHT22;27858;51.414;0.018;2023-06-26T06:38:00;16.90;99.90
42187;DHT22;27858;51.414;0.018;2023-06-26T06:40:27;17.00;99.90
42187;DHT22;27858;51.414;0.018;2023-06-26T06:42:54;16.90;99.90
42187;DHT22;27858;51.414;0.018;2023-06-26T06:45:21;16.90;99.90
42187;DHT22;27858;51.414;0.018;2023-06-26T06:47:48;17.00;99.90
42187;DHT22;27858;51.414;0.018;2023-06-26T06:50:15;17.00;99.90
42187;DHT22;27858;51.414;0.018;2023-06-26T06:52:43;17.10;99.90
42187;DHT22;27858;51.414;0.018;2023-06-26T06:55:10;17.10;99.90
42187;DHT22;27858;51.414;0.018;2023-06-26T06:57:38;17.30;99.90
42187;DHT22;27858;51.414;0.018;2023-06-26T07:00:10;17.30;99.90
42187;DHT22;27858;51.414;0.018;2023-06-26T07:02:38;17.40;99.90
42187;DHT22;27858;51.414;0.018;2023-06-26T07:05:05;17.50;99.90
42187;DHT22;27858;51.414;0.018;2023-06-26T07:07:33;17.50;99.90
42187;DHT22;27858;51.414;0.018;2023-06-26T07:10:06;17.50;99.90
42187;DHT22;27858;51.414;0.018;2023-06-26T07:12:34;17.40;99.90
42187;DHT22;27858;51.414;0.018;2023-06-26T07:15:02;17.50;99.90
42187;DHT22;27858;51.414;0.018;2023-06-26T07:17:32;17.50;99.90
42187;DHT22;27858;51.414;0.018;2023-06-26T07:20:00;17.50;99.90
42187;DHT22;27858;51.414;0.018;2023-06-26T07:22:27;17.60;99.90
42187;DHT22;27858;51.414;0.018;2023-06-26T07:24:54;17.70;99.90
42187;DHT22;27858;51.414;0.018;2023-06-26T07:27:21;17.80;99.90
42187;DHT22;27858;51.414;0.018;2023-06-26T07:29:47;17.90;99.90
42187;DHT22;27858;51.414;0.018;2023-06-26T07:32:14;18.00;99.90
42187;DHT22;27858;51.414;0.018;2023-06-26T07:34:41;18.00;99.90
42187;DHT22;27858;51.414;0.018;2023-06-26T07:37:08;18.00;99.90
42187;DHT22;27858;51.414;0.018;2023-06-26T07:39:35;18.10;99.90
42187;DHT22;27858;51.414;0.018;2023-06-26T07:42:02;18.20;99.90
42187;DHT22;27858;51.414;0.018;2023-06-26T07:44:28;18.40;99.90
42187;DHT22;27858;51.414;0.018;2023-06-26T07:46:55;18.50;99.90
42187;DHT22;27858;51.414;0.018;2023-06-26T07:49:22;18.60;99.90
42187;DHT22;27858;51.414;0.018;2023-06-26T07:51:56;18.60;99.90
42187;DHT22;27858;51.414;0.018;2023-06-26T07:54:23;18.70;99.90
42187;DHT22;27858;51.414;0.018;2023-06-26T07:57:03;18.80;99.90
42187;DHT22;27858;51.414;0.018;2023-06-26T07:59:33;18.80;99.90
42187;DHT22;27858;51.414;0.018;2023-06-26T08:02:00;18.80;99.90
42187;DHT22;27858;51.414;0.018;2023-06-26T08:04:28;18.70;97.70
42187;DHT22;27858;51.414;0.018;2023-06-26T08:07:02;18.60;99.90
42187;DHT22;27858;51.414;0.018;2023-06-26T08:09:30;18.90;99.90
42187;DHT22;27858;51.414;0.018;2023-06-26T08:11:58;19.10;73.20
42187;DHT22;27858;51.414;0.018;2023-06-26T08:14:25;19.20;77.80
42187;DHT22;27858;51.414;0.018;2023-06-26T08:16:52;19.30;78.50
42187;DHT22;27858;51.414;0.018;2023-06-26T08:19:18;19.20;56.90
42187;DHT22;27858;51.414;0.018;2023-06-26T08:21:47;19.20;58.00
42187;DHT22;27858;51.414;0.018;2023-06-26T08:24:14;19.40;61.40
42187;DHT22;27858;51.414;0.018;2023-06-26T08:26:45;19.20;46.70
42187;DHT22;27858;51.414;0.018;2023-06-26T08:29:13;19.40;54.50
42187;DHT22;27858;51.414;0.018;2023-06-26T08:31:42;19.60;56.30
42187;DHT22;27858;51.414;0.018;2023-06-26T08:34:09;19.60;46.80
42187;DHT22;27858;51.414;0.018;2023-06-26T08:36:36;19.60;31.80
42187;DHT22;27858;51.414;0.018;2023-06-26T08:39:03;19.60;32.30
42187;DHT22;27858;51.414;0.018;2023-06-26T08:41:31;19.60;32.60
42187;DHT22;27858;51.414;0.018;2023-06-26T08:43:58;19.80;26.70
42187;DHT22;27858;51.414;0.018;2023-06-26T08:46:25;19.90;26.20
42187;DHT22;27858;51.414;0.018;2023-06-26T08:48:56;19.90;19.10
42187;DHT22;27858;51.414;0.018;2023-06-26T08:51:28;19.90;10.00
42187;DHT22;27858;51.414;0.018;2023-06-26T08:54:00;19.70;1.40
42187;DHT22;27858;51.414;0.018;2023-06-26T08:56:31;19.60;1.00
42187;DHT22;27858;51.414;0.018;2023-06-26T08:58:59;19.70;1.00
42187;DHT22;27858;51.414;0.018;2023-06-26T09:01:26;19.60;1.00
42187;DHT22;27858;51.414;0.018;2023-06-26T09:03:53;19.80;1.00
42187;DHT22;27858;51.414;0.018;2023-06-26T09:06:20;19.70;1.00
42187;DHT22;27858;51.414;0.018;2023-06-26T09:08:47;19.80;1.00
42187;DHT22;27858;51.414;0.018;2023-06-26T09:11:14;20.00;1.00
42187;DHT22;27858;51.414;0.018;2023-06-26T09:13:42;20.40;99.90
42187;DHT22;27858;51.414;0.018;2023-06-26T09:16:10;20.50;99.90
42187;DHT22;27858;51.414;0.018;2023-06-26T09:18:37;20.50;99.90
42187;DHT22;27858;51.414;0.018;2023-06-26T09:21:07;20.60;99.90
42187;DHT22;27858;51.414;0.018;2023-06-26T09:23:35;20.50;99.90
42187;DHT22;27858;51.414;0.018;2023-06-26T09:26:03;20.20;99.90
42187;DHT22;27858;51.414;0.018;2023-06-26T09:28:32;20.20;99.90
42187;DHT22;27858;51.414;0.018;2023-06-26T09:31:07;20.40;99.90
42187;DHT22;27858;51.414;0.018;2023-06-26T09:33:36;20.50;99.90
42187;DHT22;27858;51.414;0.018;2023-06-26T09:36:19;20.60;99.90
42187;DHT22;27858;51.414;0.018;2023-06-26T09:38:47;20.90;99.90
42187;DHT22;27858;51.414;0.018;2023-06-26T09:41:18;21.10;99.90
42187;DHT22;27858;51.414;0.018;2023-06-26T09:43:49;20.90;99.90
42187;DHT22;27858;51.414;0.018;2023-06-26T09:46:26;20.60;99.90
42187;DHT22;27858;51.414;0.018;2023-06-26T09:49:17;20.30;99.90
42187;DHT22;27858;51.414;0.018;2023-06-26T09:51:45;20.50;99.90
42187;DHT22;27858;51.414;0.018;2023-06-26T09:54:16;20.50;99.90
42187;DHT22;27858;51.414;0.018;2023-06-26T09:56:44;20.40;99.90
42187;DHT22;27858;51.414;0.018;2023-06-26T09:59:11;20.50;99.90
42187;DHT22;27858;51.414;0.018;2023-06-26T10:01:43;20.60;99.90
42187;DHT22;27858;51.414;0.018;2023-06-26T10:04:11;20.70;99.90
42187;DHT22;27858;51.414;0.018;2023-06-26T10:06:46;20.80;99.90
42187;DHT22;27858;51.414;0.018;2023-06-26T10:09:16;21.00;99.90
42187;DHT22;27858;51.414;0.018;2023-06-26T10:11:55;21.40;99.90
42187;DHT22;27858;51.414;0.018;2023-06-26T10:14:26;21.40;99.90
42187;DHT22;27858;51.414;0.018;2023-06-26T10:16:57;21.10;99.90
42187;DHT22;27858;51.414;0.018;2023-06-26T10:19:26;21.30;99.90
42187;DHT22;27858;51.414;0.018;2023-06-26T10:21:54;21.60;99.90
42187;DHT22;27858;51.414;0.018;2023-06-26T10:24:23;21.50;99.90
42187;DHT22;27858;51.414;0.018;2023-06-26T10:26:57;21.30;99.90
42187;DHT22;27858;51.414;0.018;2023-06-26T10:29:25;21.60;99.90
42187;DHT22;27858;51.414;0.018;2023-06-26T10:31:55;21.70;99.90
42187;DHT22;27858;51.414;0.018;2023-06-26T10:34:24;21.80;99.90
42187;DHT22;27858;51.414;0.018;2023-06-26T10:37:02;21.80;99.90
42187;DHT22;27858;51.414;0.018;2023-06-26T10:39:59;21.90;99.90
42187;DHT22;27858;51.414;0.018;2023-06-26T10:42:36;21.90;99.90
42187;DHT22;27858;51.414;0.018;2023-06-26T10:45:19;21.80;99.90
42187;DHT22;27858;51.414;0.018;2023-06-26T10:47:52;21.40;99.90
42187;DHT22;27858;51.414;0.018;2023-06-26T10:50:30;21.90;99.90
42187;DHT22;27858;51.414;0.018;2023-06-26T10:55:59;21.70;99.90
42187;DHT22;27858;51.414;0.018;2023-06-26T11:03:44;22.00;99.90
42187;DHT22;27858;51.414;0.018;2023-06-26T11:06:17;22.20;99.90
42187;DHT22;27858;51.414;0.018;2023-06-26T11:11:16;22.00;99.90
42187;DHT22;27858;51.414;0.018;2023-06-26T11:13:45;21.90;99.90
42187;DHT22;27858;51.414;0.018;2023-06-26T11:16:13;22.00;99.90
42187;DHT22;27858;51.414;0.018;2023-06-26T11:18:42;22.20;99.90
42187;DHT22;27858;51.414;0.018;2023-06-26T11:21:09;22.50;99.90
42187;DHT22;27858;51.414;0.018;2023-06-26T11:23:39;22.30;99.90
42187;DHT22;27858;51.414;0.018;2023-06-26T11:26:19;21.90;99.90
42187;DHT22;27858;51.414;0.018;2023-06-26T11:31:34;21.80;99.90
42187;DHT22;27858;51.414;0.018;2023-06-26T11:34:04;21.80;99.90
42187;DHT22;27858;51.414;0.018;2023-06-26T11:36:31;21.70;99.90
42187;DHT22;27858;51.414;0.018;2023-06-26T11:38:59;22.00;99.90
42187;DHT22;27858;51.414;0.018;2023-06-26T11:41:29;21.80;99.90
42187;DHT22;27858;51.414;0.018;2023-06-26T11:44:00;22.10;99.90
42187;DHT22;27858;51.414;0.018;2023-06-26T11:46:31;21.90;99.90
42187;DHT22;27858;51.414;0.018;2023-06-26T11:48:58;22.30;99.90
42187;DHT22;27858;51.414;0.018;2023-06-26T11:51:28;22.60;99.90
42187;DHT22;27858;51.414;0.018;2023-06-26T11:53:55;22.70;99.90
42187;DHT22;27858;51.414;0.018;2023-06-26T11:56:22;22.70;99.90
42187;DHT22;27858;51.414;0.018;2023-06-26T11:59:10;22.80;99.90
42187;DHT22;27858;51.414;0.018;2023-06-26T12:01:44;22.90;99.90
42187;DHT22;27858;51.414;0.018;2023-06-26T12:04:14;23.00;99.90
42187;DHT22;27858;51.414;0.018;2023-06-26T12:06:45;22.90;99.90
42187;DHT22;27858;51.414;0.018;2023-06-26T12:09:13;22.40;99.90
42187;DHT22;27858;51.414;0.018;2023-06-26T12:11:44;22.30;99.90
42187;DHT22;27858;51.414;0.018;2023-06-26T12:14:11;22.30;99.90
42187;DHT22;27858;51.414;0.018;2023-06-26T12:16:39;22.20;99.90
42187;DHT22;27858;51.414;0.018;2023-06-26T12:19:08;22.70;99.90
42187;DHT22;27858;51.414;0.018;2023-06-26T12:24:06;22.90;99.90
42187;DHT22;27858;51.414;0.018;2023-06-26T12:26:33;22.80;99.90
42187;DHT22;27858;51.414;0.018;2023-06-26T12:29:08;22.60;99.90
42187;DHT22;27858;51.414;0.018;2023-06-26T12:31:35;23.00;99.90
42187;DHT22;27858;51.414;0.018;2023-06-26T12:34:09;22.70;99.90
42187;DHT22;27858;51.414;0.018;2023-06-26T12:36:41;23.10;99.90
42187;DHT22;27858;51.414;0.018;2023-06-26T12:39:10;23.10;99.90
42187;DHT22;27858;51.414;0.018;2023-06-26T12:41:45;23.60;99.90
42187;DHT22;27858;51.414;0.018;2023-06-26T12:44:19;23.50;99.90
42187;DHT22;27858;51.414;0.018;2023-06-26T12:46:48;23.50;99.90
42187;DHT22;27858;51.414;0.018;2023-06-26T12:49:16;23.70;99.90
42187;DHT22;27858;51.414;0.018;2023-06-26T12:51:57;23.30;99.90
42187;DHT22;27858;51.414;0.018;2023-06-26T12:54:24;23.20;99.90
42187;DHT22;27858;51.414;0.018;2023-06-26T12:56:52;23.10;99.90
42187;DHT22;27858;51.414;0.018;2023-06-26T12:59:20;22.90;99.90
42187;DHT22;27858;51.414;0.018;2023-06-26T13:01:47;23.10;99.90
42187;DHT22;27858;51.414;0.018;2023-06-26T13:04:14;22.80;99.90
42187;DHT22;27858;51.414;0.018;2023-06-26T13:06:41;22.90;99.90
42187;DHT22;27858;51.414;0.018;2023-06-26T13:09:09;22.90;99.90
42187;DHT22;27858;51.414;0.018;2023-06-26T13:11:37;23.10;99.90
42187;DHT22;27858;51.414;0.018;2023-06-26T13:14:04;23.40;99.90
42187;DHT22;27858;51.414;0.018;2023-06-26T13:16:37;23.30;99.90
42187;DHT22;27858;51.414;0.018;2023-06-26T13:19:04;23.30;99.90
42187;DHT22;27858;51.414;0.018;2023-06-26T13:21:33;23.50;99.90
42187;DHT22;27858;51.414;0.018;2023-06-26T13:24:00;23.70;99.90
42187;DHT22;27858;51.414;0.018;2023-06-26T13:26:28;23.70;99.90
42187;DHT22;27858;51.414;0.018;2023-06-26T13:29:03;23.20;99.90
42187;DHT22;27858;51.414;0.018;2023-06-26T13:31:31;23.50;99.90
42187;DHT22;27858;51.414;0.018;2023-06-26T13:33:58;23.00;99.90
42187;DHT22;27858;51.414;0.018;2023-06-26T13:36:26;23.00;99.90
42187;DHT22;27858;51.414;0.018;2023-06-26T13:38:53;23.30;99.90
42187;DHT22;27858;51.414;0.018;2023-06-26T13:41:23;23.50;99.90
42187;DHT22;27858;51.414;0.018;2023-06-26T13:43:51;23.40;99.90
42187;DHT22;27858;51.414;0.018;2023-06-26T13:46:18;23.40;99.90
42187;DHT22;27858;51.414;0.018;2023-06-26T13:48:45;23.60;99.90
42187;DHT22;27858;51.414;0.018;2023-06-26T13:51:13;23.50;99.90
42187;DHT22;27858;51.414;0.018;2023-06-26T13:53:40;23.80;99.90
42187;DHT22;27858;51.414;0.018;2023-06-26T13:56:07;23.60;99.90
42187;DHT22;27858;51.414;0.018;2023-06-26T13:58:35;23.60;99.90
42187;DHT22;27858;51.414;0.018;2023-06-26T14:01:03;23.90;99.90
42187;DHT22;27858;51.414;0.018;2023-06-26T14:03:31;23.40;99.90
42187;DHT22;27858;51.414;0.018;2023-06-26T14:05:58;23.10;99.90
42187;DHT22;27858;51.414;0.018;2023-06-26T14:08:25;23.40;99.90
42187;DHT22;27858;51.414;0.018;2023-06-26T14:10:52;23.20;99.90
42187;DHT22;27858;51.414;0.018;2023-06-26T14:13:19;23.10;99.90
42187;DHT22;27858;51.414;0.018;2023-06-26T14:15:49;23.00;99.90
42187;DHT22;27858;51.414;0.018;2023-06-26T14:18:20;22.70;99.90
42187;DHT22;27858;51.414;0.018;2023-06-26T14:20:47;22.40;99.90
42187;DHT22;27858;51.414;0.018;2023-06-26T14:23:15;22.30;99.90
42187;DHT22;27858;51.414;0.018;2023-06-26T14:25:48;22.30;99.90
42187;DHT22;27858;51.414;0.018;2023-06-26T14:28:15;22.20;99.90
42187;DHT22;27858;51.414;0.018;2023-06-26T14:30:42;22.50;99.90
42187;DHT22;27858;51.414;0.018;2023-06-26T14:33:10;22.40;99.90
42187;DHT22;27858;51.414;0.018;2023-06-26T14:35:36;22.50;99.90
42187;DHT22;27858;51.414;0.018;2023-06-26T14:38:04;22.50;99.90
42187;DHT22;27858;51.414;0.018;2023-06-26T14:40:31;22.30;99.90
42187;DHT22;27858;51.414;0.018;2023-06-26T14:42:58;22.30;99.90
42187;DHT22;27858;51.414;0.018;2023-06-26T14:45:26;22.40;99.90
42187;DHT22;27858;51.414;0.018;2023-06-26T14:47:53;22.20;99.90
42187;DHT22;27858;51.414;0.018;2023-06-26T14:50:20;22.30;99.90
42187;DHT22;27858;51.414;0.018;2023-06-26T14:52:47;22.20;99.90
42187;DHT22;27858;51.414;0.018;2023-06-26T14:55:14;22.20;99.90
42187;DHT22;27858;51.414;0.018;2023-06-26T14:57:41;22.20;99.90
42187;DHT22;27858;51.414;0.018;2023-06-26T15:00:08;22.20;99.90
42187;DHT22;27858;51.414;0.018;2023-06-26T15:02:35;22.30;99.90
42187;DHT22;27858;51.414;0.018;2023-06-26T15:05:02;22.10;99.90
42187;DHT22;27858;51.414;0.018;2023-06-26T15:07:29;22.20;99.90
42187;DHT22;27858;51.414;0.018;2023-06-26T15:09:56;22.40;99.90
42187;DHT22;27858;51.414;0.018;2023-06-26T15:12:23;22.50;99.90
42187;DHT22;27858;51.414;0.018;2023-06-26T15:14:50;22.50;99.90
42187;DHT22;27858;51.414;0.018;2023-06-26T15:17:18;22.50;99.90
42187;DHT22;27858;51.414;0.018;2023-06-26T15:22:26;22.40;99.90
42187;DHT22;27858;51.414;0.018;2023-06-26T15:24:53;22.50;99.90
42187;DHT22;27858;51.414;0.018;2023-06-26T15:27:20;22.40;99.90
42187;DHT22;27858;51.414;0.018;2023-06-26T15:29:50;22.40;99.90
42187;DHT22;27858;51.414;0.018;2023-06-26T15:32:17;22.70;99.90
42187;DHT22;27858;51.414;0.018;2023-06-26T15:34:44;22.80;99.90
42187;DHT22;27858;51.414;0.018;2023-06-26T15:37:11;22.80;99.90
42187;DHT22;27858;51.414;0.018;2023-06-26T15:39:38;22.90;99.90
42187;DHT22;27858;51.414;0.018;2023-06-26T15:42:06;22.90;99.90
42187;DHT22;27858;51.414;0.018;2023-06-26T15:44:33;22.60;99.90
42187;DHT22;27858;51.414;0.018;2023-06-26T15:47:00;22.40;99.90
42187;DHT22;27858;51.414;0.018;2023-06-26T15:49:27;22.50;99.90
42187;DHT22;27858;51.414;0.018;2023-06-26T15:51:54;23.10;99.90
42187;DHT22;27858;51.414;0.018;2023-06-26T15:54:21;23.00;99.90
42187;DHT22;27858;51.414;0.018;2023-06-26T15:56:48;22.80;99.90
42187;DHT22;27858;51.414;0.018;2023-06-26T15:59:15;22.70;99.90
42187;DHT22;27858;51.414;0.018;2023-06-26T16:01:45;23.10;99.90
42187;DHT22;27858;51.414;0.018;2023-06-26T16:04:12;23.10;99.90
42187;DHT22;27858;51.414;0.018;2023-06-26T16:06:39;22.90;99.90
42187;DHT22;27858;51.414;0.018;2023-06-26T16:09:06;23.10;99.90
42187;DHT22;27858;51.414;0.018;2023-06-26T16:11:33;23.00;99.90
42187;DHT22;27858;51.414;0.018;2023-06-26T16:14:00;23.30;99.90
42187;DHT22;27858;51.414;0.018;2023-06-26T16:16:26;23.40;99.90
42187;DHT22;27858;51.414;0.018;2023-06-26T16:18:53;23.40;99.90
42187;DHT22;27858;51.414;0.018;2023-06-26T16:21:20;23.40;99.90
42187;DHT22;27858;51.414;0.018;2023-06-26T16:23:47;22.90;99.90
42187;DHT22;27858;51.414;0.018;2023-06-26T16:26:13;22.80;99.90
42187;DHT22;27858;51.414;0.018;2023-06-26T16:28:40;22.50;99.90
42187;DHT22;27858;51.414;0.018;2023-06-26T16:31:07;22.70;99.90
42187;DHT22;27858;51.414;0.018;2023-06-26T16:33:34;22.60;99.90
42187;DHT22;27858;51.414;0.018;2023-06-26T16:36:01;22.90;99.90
42187;DHT22;27858;51.414;0.018;2023-06-26T16:38:27;23.30;99.90
42187;DHT22;27858;51.414;0.018;2023-06-26T16:40:54;23.30;99.90
42187;DHT22;27858;51.414;0.018;2023-06-26T16:43:22;23.30;99.90
42187;DHT22;27858;51.414;0.018;2023-06-26T16:45:48;23.40;99.90
42187;DHT22;27858;51.414;0.018;2023-06-26T16:48:15;23.40;99.90
42187;DHT22;27858;51.414;0.018;2023-06-26T16:50:42;22.90;99.90
42187;DHT22;27858;51.414;0.018;2023-06-26T16:53:09;22.80;99.90
42187;DHT22;27858;51.414;0.018;2023-06-26T16:55:35;22.80;99.90
42187;DHT22;27858;51.414;0.018;2023-06-26T16:58:02;22.90;99.90
42187;DHT22;27858;51.414;0.018;2023-06-26T17:00:29;22.80;99.90
42187;DHT22;27858;51.414;0.018;2023-06-26T17:02:56;22.80;99.90
42187;DHT22;27858;51.414;0.018;2023-06-26T17:05:23;22.90;99.90
42187;DHT22;27858;51.414;0.018;2023-06-26T17:07:49;22.70;99.90
42187;DHT22;27858;51.414;0.018;2023-06-26T17:10:16;22.60;99.90
42187;DHT22;27858;51.414;0.018;2023-06-26T17:12:43;22.80;99.90
42187;DHT22;27858;51.414;0.018;2023-06-26T17:15:10;23.10;99.90
42187;DHT22;27858;51.414;0.018;2023-06-26T17:17:37;23.40;99.90
42187;DHT22;27858;51.414;0.018;2023-06-26T17:20:04;23.90;99.90
42187;DHT22;27858;51.414;0.018;2023-06-26T17:22:37;23.90;99.90
42187;DHT22;27858;51.414;0.018;2023-06-26T17:25:05;24.70;99.90
42187;DHT22;27858;51.414;0.018;2023-06-26T17:27:32;25.10;99.90
42187;DHT22;27858;51.414;0.018;2023-06-26T17:30:00;25.20;99.90
42187;DHT22;27858;51.414;0.018;2023-06-26T17:32:27;25.40;99.90
42187;DHT22;27858;51.414;0.018;2023-06-26T17:34:54;25.40;99.90
42187;DHT22;27858;51.414;0.018;2023-06-26T17:37:21;25.40;99.90
42187;DHT22;27858;51.414;0.018;2023-06-26T17:39:52;25.20;99.90
42187;DHT22;27858;51.414;0.018;2023-06-26T17:42:19;25.70;99.90
42187;DHT22;27858;51.414;0.018;2023-06-26T17:44:46;26.00;99.90
42187;DHT22;27858;51.414;0.018;2023-06-26T17:47:13;26.40;99.90
42187;DHT22;27858;51.414;0.018;2023-06-26T17:49:40;26.50;99.90
42187;DHT22;27858;51.414;0.018;2023-06-26T17:52:07;26.30;99.90
42187;DHT22;27858;51.414;0.018;2023-06-26T17:54:34;26.60;99.90
42187;DHT22;27858;51.414;0.018;2023-06-26T17:57:01;26.00;99.90
42187;DHT22;27858;51.414;0.018;2023-06-26T17:59:28;26.00;99.90
42187;DHT22;27858;51.414;0.018;2023-06-26T18:01:54;26.20;99.90
42187;DHT22;27858;51.414;0.018;2023-06-26T18:04:25;26.10;99.90
42187;DHT22;27858;51.414;0.018;2023-06-26T18:06:52;25.50;99.90
42187;DHT22;27858;51.414;0.018;2023-06-26T18:09:19;24.50;99.90
42187;DHT22;27858;51.414;0.018;2023-06-26T18:11:46;24.30;99.90
42187;DHT22;27858;51.414;0.018;2023-06-26T18:14:13;24.40;99.90
42187;DHT22;27858;51.414;0.018;2023-06-26T18:16:40;24.20;99.90
42187;DHT22;27858;51.414;0.018;2023-06-26T18:19:07;24.30;99.90
42187;DHT22;27858;51.414;0.018;2023-06-26T18:21:34;24.10;99.90
42187;DHT22;27858;51.414;0.018;2023-06-26T18:24:01;23.80;99.90
42187;DHT22;27858;51.414;0.018;2023-06-26T18:26:28;23.60;99.90
42187;DHT22;27858;51.414;0.018;2023-06-26T18:28:54;23.00;99.90
42187;DHT22;27858;51.414;0.018;2023-06-26T18:31:22;22.80;99.90
42187;DHT22;27858;51.414;0.018;2023-06-26T18:33:49;22.70;99.90
42187;DHT22;27858;51.414;0.018;2023-06-26T18:36:16;22.60;99.90
42187;DHT22;27858;51.414;0.018;2023-06-26T18:38:43;22.70;99.90
42187;DHT22;27858;51.414;0.018;2023-06-26T18:41:10;22.50;99.90
42187;DHT22;27858;51.414;0.018;2023-06-26T18:43:40;22.50;99.90
42187;DHT22;27858;51.414;0.018;2023-06-26T18:46:09;22.20;99.90
42187;DHT22;27858;51.414;0.018;2023-06-26T18:48:37;22.00;99.90
42187;DHT22;27858;51.414;0.018;2023-06-26T18:51:04;22.00;99.90
42187;DHT22;27858;51.414;0.018;2023-06-26T18:53:31;21.80;99.90
42187;DHT22;27858;51.414;0.018;2023-06-26T18:55:58;21.80;99.90
42187;DHT22;27858;51.414;0.018;2023-06-26T18:58:25;21.60;99.90
42187;DHT22;27858;51.414;0.018;2023-06-26T19:00:51;21.70;99.90
42187;DHT22;27858;51.414;0.018;2023-06-26T19:03:18;21.70;99.90
42187;DHT22;27858;51.414;0.018;2023-06-26T19:05:45;21.60;99.90
42187;DHT22;27858;51.414;0.018;2023-06-26T19:08:12;21.50;99.90
42187;DHT22;27858;51.414;0.018;2023-06-26T19:10:39;21.40;99.90
42187;DHT22;27858;51.414;0.018;2023-06-26T19:13:08;21.40;99.90
42187;DHT22;27858;51.414;0.018;2023-06-26T19:15:35;21.50;99.90
42187;DHT22;27858;51.414;0.018;2023-06-26T19:18:02;21.50;99.90
42187;DHT22;27858;51.414;0.018;2023-06-26T19:20:29;21.40;99.90
42187;DHT22;27858;51.414;0.018;2023-06-26T19:22:55;21.30;99.90
42187;DHT22;27858;51.414;0.018;2023-06-26T19:25:22;21.30;99.90
42187;DHT22;27858;51.414;0.018;2023-06-26T19:27:49;21.20;99.90
42187;DHT22;27858;51.414;0.018;2023-06-26T19:30:16;21.20;99.90
42187;DHT22;27858;51.414;0.018;2023-06-26T19:32:43;21.20;99.90
42187;DHT22;27858;51.414;0.018;2023-06-26T19:35:12;21.20;99.90
42187;DHT22;27858;51.414;0.018;2023-06-26T19:37:39;21.20;99.90
42187;DHT22;27858;51.414;0.018;2023-06-26T19:40:22;21.20;99.90
42187;DHT22;27858;51.414;0.018;2023-06-26T19:42:49;21.10;99.90
42187;DHT22;27858;51.414;0.018;2023-06-26T19:45:16;21.00;99.90
42187;DHT22;27858;51.414;0.018;2023-06-26T19:47:43;21.00;99.90
42187;DHT22;27858;51.414;0.018;2023-06-26T19:50:10;21.00;99.90
42187;DHT22;27858;51.414;0.018;2023-06-26T19:52:38;21.00;99.90
42187;DHT22;27858;51.414;0.018;2023-06-26T19:55:06;20.90;99.90
42187;DHT22;27858;51.414;0.018;2023-06-26T19:57:32;20.80;99.90